sensor_id;sensor_type;location;lat;lon;timestamp;P1;durP1;ratioP1;P2;durP2;ratioP2
9270;SDS011;4673;53.458;9.940;2023-04-24T00:02:20;4.50;;;4.50;;
9270;SDS011;4673;53.458;9.940;2023-04-24T00:04:47;4.90;;;4.90;;
9270;SDS011;4673;53.458;9.940;2023-04-24T00:07:14;4.47;;;4.47;;
9270;SDS011;4673;53.458;9.940;2023-04-24T00:09:41;4.33;;;4.33;;
9270;SDS011;4673;53.458;9.940;2023-04-24T00:12:08;4.30;;;4.30;;
9270;SDS011;4673;53.458;9.940;2023-04-24T00:14:34;4.57;;;4.57;;
9270;SDS011;4673;53.458;9.940;2023-04-24T00:17:00;4.57;;;4.57;;
9270;SDS011;4673;53.458;9.940;2023-04-24T00:19:27;4.83;;;4.83;;
9270;SDS011;4673;53.458;9.940;2023-04-24T00:21:53;4.97;;;4.97;;
9270;SDS011;4673;53.458;9.940;2023-04-24T00:24:19;5.43;;;5.43;;
9270;SDS011;4673;53.458;9.940;2023-04-24T00:26:45;4.50;;;4.50;;
9270;SDS011;4673;53.458;9.940;2023-04-24T00:29:11;5.10;;;5.10;;
9270;SDS011;4673;53.458;9.940;2023-04-24T00:31:37;4.60;;;4.60;;
9270;SDS011;4673;53.458;9.940;2023-04-24T00:34:03;5.17;;;5.17;;
9270;SDS011;4673;53.458;9.940;2023-04-24T00:36:29;4.27;;;4.27;;
9270;SDS011;4673;53.458;9.940;2023-04-24T00:38:56;4.50;;;4.50;;
9270;SDS011;4673;53.458;9.940;2023-04-24T00:41:22;4.87;;;4.87;;
9270;SDS011;4673;53.458;9.940;2023-04-24T00:43:49;4.90;;;4.90;;
9270;SDS011;4673;53.458;9.940;2023-04-24T00:46:15;4.40;;;4.40;;
9270;SDS011;4673;53.458;9.940;2023-04-24T00:48:41;4.90;;;4.90;;
9270;SDS011;4673;53.458;9.940;2023-04-24T00:51:08;5.37;;;5.37;;
9270;SDS011;4673;53.458;9.940;2023-04-24T00:53:33;5.33;;;5.33;;
9270;SDS011;4673;53.458;9.940;2023-04-24T00:55:59;4.90;;;4.90;;
9270;SDS011;4673;53.458;9.940;2023-04-24T00:58:25;5.37;;;5.37;;
9270;SDS011;4673;53.458;9.940;2023-04-24T01:00:52;5.37;;;5.37;;
9270;SDS011;4673;53.458;9.940;2023-04-24T01:03:22;4.97;;;4.97;;
9270;SDS011;4673;53.458;9.940;2023-04-24T01:05:51;5.33;;;5.33;;
9270;SDS011;4673;53.458;9.940;2023-04-24T01:08:17;5.20;;;5.20;;
9270;SDS011;4673;53.458;9.940;2023-04-24T01:10:45;5.33;;;5.33;;
9270;SDS011;4673;53.458;9.940;2023-04-24T01:13:12;4.93;;;4.93;;
9270;SDS011;4673;53.458;9.940;2023-04-24T01:15:38;5.00;;;5.00;;
9270;SDS011;4673;53.458;9.940;2023-04-24T01:18:04;5.43;;;5.43;;
9270;SDS011;4673;53.458;9.940;2023-04-24T01:20:30;5.30;;;5.30;;
9270;SDS011;4673;53.458;9.940;2023-04-24T01:22:56;4.73;;;4.73;;
9270;SDS011;4673;53.458;9.940;2023-04-24T01:25:22;4.83;;;4.83;;
9270;SDS011;4673;53.458;9.940;2023-04-24T01:27:49;5.07;;;5.07;;
9270;SDS011;4673;53.458;9.940;2023-04-24T01:30:16;4.43;;;4.43;;
9270;SDS011;4673;53.458;9.940;2023-04-24T01:32:42;4.23;;;4.23;;
9270;SDS011;4673;53.458;9.940;2023-04-24T01:35:09;4.30;;;4.30;;
9270;SDS011;4673;53.458;9.940;2023-04-24T01:37:35;4.50;;;4.50;;
9270;SDS011;4673;53.458;9.940;2023-04-24T01:40:02;3.80;;;3.80;;
9270;SDS011;4673;53.458;9.940;2023-04-24T01:42:31;4.13;;;4.13;;
9270;SDS011;4673;53.458;9.940;2023-04-24T01:44:57;4.33;;;4.33;;
9270;SDS011;4673;53.458;9.940;2023-04-24T01:47:23;3.80;;;3.80;;
9270;SDS011;4673;53.458;9.940;2023-04-24T01:49:49;4.03;;;4.03;;
9270;SDS011;4673;53.458;9.940;2023-04-24T01:52:16;4.03;;;4.03;;
9270;SDS011;4673;53.458;9.940;2023-04-24T01:54:43;3.80;;;3.80;;
9270;SDS011;4673;53.458;9.940;2023-04-24T01:57:20;3.53;;;3.53;;
9270;SDS011;4673;53.458;9.940;2023-04-24T01:59:46;3.20;;;3.20;;
9270;SDS011;4673;53.458;9.940;2023-04-24T02:02:11;2.83;;;2.83;;
9270;SDS011;4673;53.458;9.940;2023-04-24T02:04:37;3.43;;;3.43;;
9270;SDS011;4673;53.458;9.940;2023-04-24T02:07:03;3.03;;;3.03;;
9270;SDS011;4673;53.458;9.940;2023-04-24T02:09:28;3.43;;;3.43;;
9270;SDS011;4673;53.458;9.940;2023-04-24T02:11:54;3.33;;;3.33;;
9270;SDS011;4673;53.458;9.940;2023-04-24T02:14:19;2.83;;;2.83;;
9270;SDS011;4673;53.458;9.940;2023-04-24T02:16:45;3.03;;;3.03;;
9270;SDS011;4673;53.458;9.940;2023-04-24T02:19:10;3.13;;;3.13;;
9270;SDS011;4673;53.458;9.940;2023-04-24T02:21:36;3.00;;;3.00;;
9270;SDS011;4673;53.458;9.940;2023-04-24T02:24:02;3.97;;;3.97;;
9270;SDS011;4673;53.458;9.940;2023-04-24T02:26:27;3.37;;;3.37;;
9270;SDS011;4673;53.458;9.940;2023-04-24T02:28:53;3.20;;;3.20;;
9270;SDS011;4673;53.458;9.940;2023-04-24T02:31:19;3.50;;;3.50;;
9270;SDS011;4673;53.458;9.940;2023-04-24T02:33:44;2.90;;;2.90;;
9270;SDS011;4673;53.458;9.940;2023-04-24T02:36:10;2.70;;;2.70;;
9270;SDS011;4673;53.458;9.940;2023-04-24T02:38:36;3.20;;;3.20;;
9270;SDS011;4673;53.458;9.940;2023-04-24T02:41:01;2.70;;;2.70;;
9270;SDS011;4673;53.458;9.940;2023-04-24T02:43:31;2.67;;;2.67;;
9270;SDS011;4673;53.458;9.940;2023-04-24T02:45:56;2.80;;;2.80;;
9270;SDS011;4673;53.458;9.940;2023-04-24T02:48:22;2.90;;;2.90;;
9270;SDS011;4673;53.458;9.940;2023-04-24T02:50:48;2.70;;;2.70;;
9270;SDS011;4673;53.458;9.940;2023-04-24T02:53:15;2.50;;;2.50;;
9270;SDS011;4673;53.458;9.940;2023-04-24T02:55:41;3.10;;;3.10;;
9270;SDS011;4673;53.458;9.940;2023-04-24T02:58:07;3.10;;;3.10;;
9270;SDS011;4673;53.458;9.940;2023-04-24T03:00:32;2.87;;;2.87;;
9270;SDS011;4673;53.458;9.940;2023-04-24T03:02:58;2.43;;;2.43;;
9270;SDS011;4673;53.458;9.940;2023-04-24T03:05:24;3.00;;;3.00;;
9270;SDS011;4673;53.458;9.940;2023-04-24T03:07:50;2.63;;;2.63;;
9270;SDS011;4673;53.458;9.940;2023-04-24T03:10:17;2.63;;;2.63;;
9270;SDS011;4673;53.458;9.940;2023-04-24T03:12:43;3.13;;;3.13;;
9270;SDS011;4673;53.458;9.940;2023-04-24T03:15:09;2.63;;;2.63;;
9270;SDS011;4673;53.458;9.940;2023-04-24T03:17:35;2.33;;;2.33;;
9270;SDS011;4673;53.458;9.940;2023-04-24T03:20:01;1.87;;;1.87;;
9270;SDS011;4673;53.458;9.940;2023-04-24T03:22:30;2.40;;;2.40;;
9270;SDS011;4673;53.458;9.940;2023-04-24T03:24:57;2.30;;;2.30;;
9270;SDS011;4673;53.458;9.940;2023-04-24T03:27:23;2.30;;;2.30;;
9270;SDS011;4673;53.458;9.940;2023-04-24T03:29:48;1.87;;;1.87;;
9270;SDS011;4673;53.458;9.940;2023-04-24T03:32:18;2.13;;;2.13;;
9270;SDS011;4673;53.458;9.940;2023-04-24T03:34:44;2.47;;;2.47;;
9270;SDS011;4673;53.458;9.940;2023-04-24T03:37:10;2.07;;;2.07;;
9270;SDS011;4673;53.458;9.940;2023-04-24T03:39:35;2.30;;;2.30;;
9270;SDS011;4673;53.458;9.940;2023-04-24T03:42:01;2.20;;;2.20;;
9270;SDS011;4673;53.458;9.940;2023-04-24T03:44:27;2.10;;;2.10;;
9270;SDS011;4673;53.458;9.940;2023-04-24T03:46:52;2.30;;;2.30;;
9270;SDS011;4673;53.458;9.940;2023-04-24T03:49:18;2.27;;;2.27;;
9270;SDS011;4673;53.458;9.940;2023-04-24T03:51:44;2.43;;;2.43;;
9270;SDS011;4673;53.458;9.940;2023-04-24T03:54:10;2.57;;;2.57;;
9270;SDS011;4673;53.458;9.940;2023-04-24T03:56:35;2.47;;;2.47;;
9270;SDS011;4673;53.458;9.940;2023-04-24T03:59:01;2.53;;;2.53;;
9270;SDS011;4673;53.458;9.940;2023-04-24T04:01:27;2.57;;;2.57;;
9270;SDS011;4673;53.458;9.940;2023-04-24T04:03:53;2.33;;;2.33;;
9270;SDS011;4673;53.458;9.940;2023-04-24T04:06:18;2.40;;;2.40;;
9270;SDS011;4673;53.458;9.940;2023-04-24T04:08:46;2.57;;;2.57;;
9270;SDS011;4673;53.458;9.940;2023-04-24T04:11:12;2.10;;;2.10;;
9270;SDS011;4673;53.458;9.940;2023-04-24T04:13:37;2.40;;;2.40;;
9270;SDS011;4673;53.458;9.940;2023-04-24T04:16:03;1.97;;;1.97;;
9270;SDS011;4673;53.458;9.940;2023-04-24T04:18:29;2.37;;;2.37;;
9270;SDS011;4673;53.458;9.940;2023-04-24T04:20:54;1.93;;;1.93;;
9270;SDS011;4673;53.458;9.940;2023-04-24T04:23:21;2.50;;;2.50;;
9270;SDS011;4673;53.458;9.940;2023-04-24T04:25:47;2.40;;;2.40;;
9270;SDS011;4673;53.458;9.940;2023-04-24T04:28:13;2.23;;;2.23;;
9270;SDS011;4673;53.458;9.940;2023-04-24T04:30:39;2.50;;;2.50;;
9270;SDS011;4673;53.458;9.940;2023-04-24T04:33:05;2.77;;;2.77;;
9270;SDS011;4673;53.458;9.940;2023-04-24T04:35:30;2.97;;;2.97;;
9270;SDS011;4673;53.458;9.940;2023-04-24T04:37:56;3.30;;;3.30;;
9270;SDS011;4673;53.458;9.940;2023-04-24T04:40:23;2.37;;;2.37;;
9270;SDS011;4673;53.458;9.940;2023-04-24T04:42:49;2.57;;;2.57;;
9270;SDS011;4673;53.458;9.940;2023-04-24T04:45:17;2.50;;;2.50;;
9270;SDS011;4673;53.458;9.940;2023-04-24T04:47:43;2.33;;;2.33;;
9270;SDS011;4673;53.458;9.940;2023-04-24T04:50:09;2.27;;;2.27;;
9270;SDS011;4673;53.458;9.940;2023-04-24T04:52:35;1.70;;;1.70;;
9270;SDS011;4673;53.458;9.940;2023-04-24T04:55:02;1.40;;;1.40;;
9270;SDS011;4673;53.458;9.940;2023-04-24T04:57:28;1.60;;;1.60;;
9270;SDS011;4673;53.458;9.940;2023-04-24T04:59:53;1.57;;;1.57;;
9270;SDS011;4673;53.458;9.940;2023-04-24T05:02:19;1.47;;;1.47;;
9270;SDS011;4673;53.458;9.940;2023-04-24T05:04:45;1.40;;;1.40;;
9270;SDS011;4673;53.458;9.940;2023-04-24T05:07:11;1.57;;;1.57;;
9270;SDS011;4673;53.458;9.940;2023-04-24T05:09:36;1.23;;;1.23;;
9270;SDS011;4673;53.458;9.940;2023-04-24T05:12:02;1.10;;;1.10;;
9270;SDS011;4673;53.458;9.940;2023-04-24T05:14:28;1.20;;;1.20;;
9270;SDS011;4673;53.458;9.940;2023-04-24T05:16:54;1.13;;;1.13;;
9270;SDS011;4673;53.458;9.940;2023-04-24T05:19:20;0.93;;;0.93;;
9270;SDS011;4673;53.458;9.940;2023-04-24T05:21:45;1.20;;;1.20;;
9270;SDS011;4673;53.458;9.940;2023-04-24T05:24:11;0.80;;;0.80;;
9270;SDS011;4673;53.458;9.940;2023-04-24T05:26:36;0.88;;;0.88;;
9270;SDS011;4673;53.458;9.940;2023-04-24T05:29:02;1.35;;;1.35;;
9270;SDS011;4673;53.458;9.940;2023-04-24T05:31:28;0.80;;;0.80;;
9270;SDS011;4673;53.458;9.940;2023-04-24T05:33:54;1.00;;;1.00;;
9270;SDS011;4673;53.458;9.940;2023-04-24T05:36:20;0.60;;;0.60;;
9270;SDS011;4673;53.458;9.940;2023-04-24T05:38:46;0.90;;;0.90;;
9270;SDS011;4673;53.458;9.940;2023-04-24T05:41:11;0.68;;;0.68;;
9270;SDS011;4673;53.458;9.940;2023-04-24T05:43:37;0.80;;;0.80;;
9270;SDS011;4673;53.458;9.940;2023-04-24T05:46:03;0.90;;;0.90;;
9270;SDS011;4673;53.458;9.940;2023-04-24T05:48:28;1.13;;;1.13;;
9270;SDS011;4673;53.458;9.940;2023-04-24T05:50:54;0.82;;;0.82;;
9270;SDS011;4673;53.458;9.940;2023-04-24T05:53:20;0.90;;;0.90;;
9270;SDS011;4673;53.458;9.940;2023-04-24T05:55:47;0.80;;;0.80;;
9270;SDS011;4673;53.458;9.940;2023-04-24T05:58:12;1.00;;;1.00;;
9270;SDS011;4673;53.458;9.940;2023-04-24T06:00:39;1.10;;;1.10;;
9270;SDS011;4673;53.458;9.940;2023-04-24T06:03:07;1.20;;;1.20;;
9270;SDS011;4673;53.458;9.940;2023-04-24T06:05:33;1.30;;;1.30;;
9270;SDS011;4673;53.458;9.940;2023-04-24T06:07:59;1.23;;;1.23;;
9270;SDS011;4673;53.458;9.940;2023-04-24T06:10:25;1.00;;;1.00;;
9270;SDS011;4673;53.458;9.940;2023-04-24T06:12:51;1.17;;;1.17;;
9270;SDS011;4673;53.458;9.940;2023-04-24T06:15:16;1.00;;;1.00;;
9270;SDS011;4673;53.458;9.940;2023-04-24T06:17:42;1.23;;;1.23;;
9270;SDS011;4673;53.458;9.940;2023-04-24T06:20:08;1.23;;;1.23;;
9270;SDS011;4673;53.458;9.940;2023-04-24T06:22:35;1.08;;;1.08;;
9270;SDS011;4673;53.458;9.940;2023-04-24T06:25:01;1.27;;;1.27;;
9270;SDS011;4673;53.458;9.940;2023-04-24T06:27:27;1.30;;;1.30;;
9270;SDS011;4673;53.458;9.940;2023-04-24T06:29:53;1.58;;;1.58;;
9270;SDS011;4673;53.458;9.940;2023-04-24T06:32:23;2.53;;;2.53;;
9270;SDS011;4673;53.458;9.940;2023-04-24T06:34:50;1.37;;;1.37;;
9270;SDS011;4673;53.458;9.940;2023-04-24T06:37:17;1.30;;;1.30;;
9270;SDS011;4673;53.458;9.940;2023-04-24T06:39:44;1.35;;;1.35;;
9270;SDS011;4673;53.458;9.940;2023-04-24T06:42:09;1.37;;;1.37;;
9270;SDS011;4673;53.458;9.940;2023-04-24T06:44:35;1.50;;;1.50;;
9270;SDS011;4673;53.458;9.940;2023-04-24T06:47:05;1.57;;;1.57;;
9270;SDS011;4673;53.458;9.940;2023-04-24T06:49:33;1.60;;;1.60;;
9270;SDS011;4673;53.458;9.940;2023-04-24T06:51:59;1.50;;;1.50;;
9270;SDS011;4673;53.458;9.940;2023-04-24T06:54:25;1.50;;;1.50;;
9270;SDS011;4673;53.458;9.940;2023-04-24T06:56:50;1.60;;;1.60;;
9270;SDS011;4673;53.458;9.940;2023-04-24T06:59:17;1.67;;;1.67;;
9270;SDS011;4673;53.458;9.940;2023-04-24T07:01:42;1.70;;;1.70;;
9270;SDS011;4673;53.458;9.940;2023-04-24T07:04:08;1.85;;;1.85;;
9270;SDS011;4673;53.458;9.940;2023-04-24T07:06:34;1.73;;;1.73;;
9270;SDS011;4673;53.458;9.940;2023-04-24T07:09:00;2.17;;;2.17;;
9270;SDS011;4673;53.458;9.940;2023-04-24T07:11:26;2.30;;;2.30;;
9270;SDS011;4673;53.458;9.940;2023-04-24T07:13:54;2.23;;;2.23;;
9270;SDS011;4673;53.458;9.940;2023-04-24T07:16:20;2.90;;;2.90;;
9270;SDS011;4673;53.458;9.940;2023-04-24T07:18:46;1.80;;;1.80;;
9270;SDS011;4673;53.458;9.940;2023-04-24T07:21:11;2.00;;;2.00;;
9270;SDS011;4673;53.458;9.940;2023-04-24T07:23:37;2.87;;;2.87;;
9270;SDS011;4673;53.458;9.940;2023-04-24T07:26:03;1.87;;;1.87;;
9270;SDS011;4673;53.458;9.940;2023-04-24T07:28:29;2.77;;;2.77;;
9270;SDS011;4673;53.458;9.940;2023-04-24T07:30:58;2.43;;;2.43;;
9270;SDS011;4673;53.458;9.940;2023-04-24T07:33:25;2.97;;;2.97;;
9270;SDS011;4673;53.458;9.940;2023-04-24T07:35:53;2.63;;;2.63;;
9270;SDS011;4673;53.458;9.940;2023-04-24T07:38:19;3.33;;;3.33;;
9270;SDS011;4673;53.458;9.940;2023-04-24T07:40:47;2.80;;;2.80;;
9270;SDS011;4673;53.458;9.940;2023-04-24T07:43:13;2.80;;;2.80;;
9270;SDS011;4673;53.458;9.940;2023-04-24T07:45:39;2.80;;;2.80;;
9270;SDS011;4673;53.458;9.940;2023-04-24T07:48:05;3.00;;;3.00;;
9270;SDS011;4673;53.458;9.940;2023-04-24T07:50:31;2.60;;;2.60;;
9270;SDS011;4673;53.458;9.940;2023-04-24T07:52:57;2.90;;;2.90;;
9270;SDS011;4673;53.458;9.940;2023-04-24T07:57:48;3.08;;;3.08;;
9270;SDS011;4673;53.458;9.940;2023-04-24T08:00:14;3.28;;;3.28;;
9270;SDS011;4673;53.458;9.940;2023-04-24T08:02:40;3.53;;;3.53;;
9270;SDS011;4673;53.458;9.940;2023-04-24T08:05:06;3.08;;;3.08;;
9270;SDS011;4673;53.458;9.940;2023-04-24T08:07:32;2.80;;;2.80;;
9270;SDS011;4673;53.458;9.940;2023-04-24T08:09:58;2.35;;;2.35;;
9270;SDS011;4673;53.458;9.940;2023-04-24T08:12:24;2.63;;;2.63;;
9270;SDS011;4673;53.458;9.940;2023-04-24T08:14:50;2.83;;;2.83;;
9270;SDS011;4673;53.458;9.940;2023-04-24T08:17:16;3.20;;;3.20;;
9270;SDS011;4673;53.458;9.940;2023-04-24T08:19:42;2.77;;;2.77;;
9270;SDS011;4673;53.458;9.940;2023-04-24T08:22:12;3.58;;;3.58;;
9270;SDS011;4673;53.458;9.940;2023-04-24T08:24:38;3.53;;;3.53;;
9270;SDS011;4673;53.458;9.940;2023-04-24T08:27:04;3.20;;;3.20;;
9270;SDS011;4673;53.458;9.940;2023-04-24T08:29:29;3.38;;;3.38;;
9270;SDS011;4673;53.458;9.940;2023-04-24T08:31:55;3.28;;;3.28;;
9270;SDS011;4673;53.458;9.940;2023-04-24T08:34:21;3.67;;;3.67;;
9270;SDS011;4673;53.458;9.940;2023-04-24T08:36:47;2.92;;;2.92;;
9270;SDS011;4673;53.458;9.940;2023-04-24T08:39:13;3.60;;;3.60;;
9270;SDS011;4673;53.458;9.940;2023-04-24T08:41:41;4.75;;;4.75;;
9270;SDS011;4673;53.458;9.940;2023-04-24T08:44:11;6.63;;;6.63;;
9270;SDS011;4673;53.458;9.940;2023-04-24T08:46:38;3.47;;;3.47;;
9270;SDS011;4673;53.458;9.940;2023-04-24T08:49:05;3.33;;;3.33;;
9270;SDS011;4673;53.458;9.940;2023-04-24T08:51:31;2.85;;;2.85;;
9270;SDS011;4673;53.458;9.940;2023-04-24T08:53:57;3.08;;;3.08;;
9270;SDS011;4673;53.458;9.940;2023-04-24T08:56:23;3.60;;;3.60;;
9270;SDS011;4673;53.458;9.940;2023-04-24T08:58:50;2.90;;;2.90;;
9270;SDS011;4673;53.458;9.940;2023-04-24T09:01:20;2.85;;;2.85;;
9270;SDS011;4673;53.458;9.940;2023-04-24T09:03:48;2.80;;;2.80;;
9270;SDS011;4673;53.458;9.940;2023-04-24T09:06:14;3.10;;;3.10;;
9270;SDS011;4673;53.458;9.940;2023-04-24T09:08:42;3.28;;;3.28;;
9270;SDS011;4673;53.458;9.940;2023-04-24T09:11:10;2.85;;;2.85;;
9270;SDS011;4673;53.458;9.940;2023-04-24T09:13:37;3.53;;;3.53;;
9270;SDS011;4673;53.458;9.940;2023-04-24T09:16:03;3.60;;;3.60;;
9270;SDS011;4673;53.458;9.940;2023-04-24T09:18:28;4.03;;;4.03;;
9270;SDS011;4673;53.458;9.940;2023-04-24T09:21:02;4.53;;;4.53;;
9270;SDS011;4673;53.458;9.940;2023-04-24T09:23:30;4.05;;;4.05;;
9270;SDS011;4673;53.458;9.940;2023-04-24T09:25:58;4.53;;;4.53;;
9270;SDS011;4673;53.458;9.940;2023-04-24T09:28:31;4.07;;;4.07;;
9270;SDS011;4673;53.458;9.940;2023-04-24T09:31:02;4.18;;;4.18;;
9270;SDS011;4673;53.458;9.940;2023-04-24T09:33:28;4.03;;;4.03;;
9270;SDS011;4673;53.458;9.940;2023-04-24T09:35:54;4.07;;;4.07;;
9270;SDS011;4673;53.458;9.940;2023-04-24T09:38:29;3.83;;;3.83;;
9270;SDS011;4673;53.458;9.940;2023-04-24T09:41:02;3.88;;;3.88;;
9270;SDS011;4673;53.458;9.940;2023-04-24T09:43:30;4.30;;;4.30;;
9270;SDS011;4673;53.458;9.940;2023-04-24T09:45:57;4.10;;;4.10;;
9270;SDS011;4673;53.458;9.940;2023-04-24T09:48:33;5.00;;;5.00;;
9270;SDS011;4673;53.458;9.940;2023-04-24T09:51:04;4.97;;;4.97;;
9270;SDS011;4673;53.458;9.940;2023-04-24T09:53:36;3.80;;;3.80;;
9270;SDS011;4673;53.458;9.940;2023-04-24T09:56:02;4.13;;;4.13;;
9270;SDS011;4673;53.458;9.940;2023-04-24T09:58:32;4.68;;;4.68;;
9270;SDS011;4673;53.458;9.940;2023-04-24T10:01:00;4.78;;;4.78;;
9270;SDS011;4673;53.458;9.940;2023-04-24T10:03:27;5.28;;;5.28;;
9270;SDS011;4673;53.458;9.940;2023-04-24T10:05:58;6.32;;;6.32;;
9270;SDS011;4673;53.458;9.940;2023-04-24T10:08:24;6.07;;;6.07;;
9270;SDS011;4673;53.458;9.940;2023-04-24T10:10:51;5.38;;;5.38;;
9270;SDS011;4673;53.458;9.940;2023-04-24T10:13:17;5.88;;;5.88;;
9270;SDS011;4673;53.458;9.940;2023-04-24T10:15:43;6.03;;;6.03;;
9270;SDS011;4673;53.458;9.940;2023-04-24T10:18:10;6.35;;;6.35;;
9270;SDS011;4673;53.458;9.940;2023-04-24T10:20:36;6.87;;;6.87;;
9270;SDS011;4673;53.458;9.940;2023-04-24T10:23:04;6.80;;;6.80;;
9270;SDS011;4673;53.458;9.940;2023-04-24T10:25:31;6.90;;;6.90;;
9270;SDS011;4673;53.458;9.940;2023-04-24T10:27:58;7.00;;;7.00;;
9270;SDS011;4673;53.458;9.940;2023-04-24T10:30:26;7.00;;;7.00;;
9270;SDS011;4673;53.458;9.940;2023-04-24T10:32:53;7.43;;;7.43;;
9270;SDS011;4673;53.458;9.940;2023-04-24T10:35:19;7.00;;;7.00;;
9270;SDS011;4673;53.458;9.940;2023-04-24T10:38:06;6.40;;;6.40;;
9270;SDS011;4673;53.458;9.940;2023-04-24T10:40:38;7.03;;;7.03;;
9270;SDS011;4673;53.458;9.940;2023-04-24T10:43:04;6.80;;;6.80;;
9270;SDS011;4673;53.458;9.940;2023-04-24T10:45:33;6.93;;;6.93;;
9270;SDS011;4673;53.458;9.940;2023-04-24T10:48:01;5.88;;;5.88;;
9270;SDS011;4673;53.458;9.940;2023-04-24T10:50:27;5.60;;;5.60;;
9270;SDS011;4673;53.458;9.940;2023-04-24T10:53:05;6.28;;;6.28;;
9270;SDS011;4673;53.458;9.940;2023-04-24T10:55:49;6.05;;;6.05;;
9270;SDS011;4673;53.458;9.940;2023-04-24T10:58:16;6.20;;;6.20;;
9270;SDS011;4673;53.458;9.940;2023-04-24T11:00:58;6.97;;;6.97;;
9270;SDS011;4673;53.458;9.940;2023-04-24T11:08:44;6.60;;;6.60;;
9270;SDS011;4673;53.458;9.940;2023-04-24T11:11:11;8.10;;;8.10;;
9270;SDS011;4673;53.458;9.940;2023-04-24T11:18:50;24.73;;;24.52;;
9270;SDS011;4673;53.458;9.940;2023-04-24T11:21:19;19.40;;;19.30;;
9270;SDS011;4673;53.458;9.940;2023-04-24T11:23:45;6.45;;;6.45;;
9270;SDS011;4673;53.458;9.940;2023-04-24T11:26:12;9.38;;;9.38;;
9270;SDS011;4673;53.458;9.940;2023-04-24T11:28:46;14.98;;;14.88;;
9270;SDS011;4673;53.458;9.940;2023-04-24T11:34:12;8.30;;;8.30;;
9270;SDS011;4673;53.458;9.940;2023-04-24T11:36:39;4.72;;;4.72;;
9270;SDS011;4673;53.458;9.940;2023-04-24T11:39:07;5.32;;;5.32;;
9270;SDS011;4673;53.458;9.940;2023-04-24T11:41:33;5.55;;;5.55;;
9270;SDS011;4673;53.458;9.940;2023-04-24T11:44:00;4.93;;;4.93;;
9270;SDS011;4673;53.458;9.940;2023-04-24T11:46:28;5.03;;;5.03;;
9270;SDS011;4673;53.458;9.940;2023-04-24T11:48:55;3.97;;;3.97;;
9270;SDS011;4673;53.458;9.940;2023-04-24T11:51:25;4.88;;;4.88;;
9270;SDS011;4673;53.458;9.940;2023-04-24T11:53:52;4.68;;;4.68;;
9270;SDS011;4673;53.458;9.940;2023-04-24T11:56:19;4.20;;;4.20;;
9270;SDS011;4673;53.458;9.940;2023-04-24T11:58:47;4.50;;;4.50;;
9270;SDS011;4673;53.458;9.940;2023-04-24T12:01:13;4.53;;;4.53;;
9270;SDS011;4673;53.458;9.940;2023-04-24T12:03:39;4.00;;;4.00;;
9270;SDS011;4673;53.458;9.940;2023-04-24T12:06:08;4.15;;;4.15;;
9270;SDS011;4673;53.458;9.940;2023-04-24T12:08:35;3.60;;;3.60;;
9270;SDS011;4673;53.458;9.940;2023-04-24T12:11:03;3.88;;;3.88;;
9270;SDS011;4673;53.458;9.940;2023-04-24T12:13:34;4.15;;;4.15;;
9270;SDS011;4673;53.458;9.940;2023-04-24T12:16:01;5.60;;;5.60;;
9270;SDS011;4673;53.458;9.940;2023-04-24T12:18:28;6.80;;;6.80;;
9270;SDS011;4673;53.458;9.940;2023-04-24T12:20:54;4.43;;;4.43;;
9270;SDS011;4673;53.458;9.940;2023-04-24T12:23:35;4.80;;;4.80;;
9270;SDS011;4673;53.458;9.940;2023-04-24T12:26:03;4.60;;;4.60;;
9270;SDS011;4673;53.458;9.940;2023-04-24T12:28:36;5.15;;;5.15;;
9270;SDS011;4673;53.458;9.940;2023-04-24T12:31:02;5.00;;;5.00;;
9270;SDS011;4673;53.458;9.940;2023-04-24T12:33:31;4.20;;;4.20;;
9270;SDS011;4673;53.458;9.940;2023-04-24T12:35:58;4.30;;;4.30;;
9270;SDS011;4673;53.458;9.940;2023-04-24T12:38:25;4.68;;;4.68;;
9270;SDS011;4673;53.458;9.940;2023-04-24T12:41:05;4.57;;;4.57;;
9270;SDS011;4673;53.458;9.940;2023-04-24T12:43:31;4.18;;;4.18;;
9270;SDS011;4673;53.458;9.940;2023-04-24T12:45:57;3.53;;;3.53;;
9270;SDS011;4673;53.458;9.940;2023-04-24T12:48:24;3.70;;;3.70;;
9270;SDS011;4673;53.458;9.940;2023-04-24T12:50:51;4.03;;;4.03;;
9270;SDS011;4673;53.458;9.940;2023-04-24T12:53:16;4.30;;;4.30;;
9270;SDS011;4673;53.458;9.940;2023-04-24T12:55:42;4.00;;;4.00;;
9270;SDS011;4673;53.458;9.940;2023-04-24T12:58:09;4.00;;;4.00;;
9270;SDS011;4673;53.458;9.940;2023-04-24T13:00:35;3.33;;;3.33;;
9270;SDS011;4673;53.458;9.940;2023-04-24T13:03:01;3.80;;;3.80;;
9270;SDS011;4673;53.458;9.940;2023-04-24T13:05:27;3.50;;;3.50;;
9270;SDS011;4673;53.458;9.940;2023-04-24T13:07:52;3.37;;;3.37;;
9270;SDS011;4673;53.458;9.940;2023-04-24T13:10:18;3.40;;;3.40;;
9270;SDS011;4673;53.458;9.940;2023-04-24T13:12:44;3.50;;;3.50;;
9270;SDS011;4673;53.458;9.940;2023-04-24T13:15:11;3.97;;;3.97;;
9270;SDS011;4673;53.458;9.940;2023-04-24T13:17:37;3.63;;;3.63;;
9270;SDS011;4673;53.458;9.940;2023-04-24T13:20:03;3.50;;;3.50;;
9270;SDS011;4673;53.458;9.940;2023-04-24T13:22:29;3.40;;;3.40;;
9270;SDS011;4673;53.458;9.940;2023-04-24T13:24:55;3.60;;;3.60;;
9270;SDS011;4673;53.458;9.940;2023-04-24T13:27:21;2.90;;;2.90;;
9270;SDS011;4673;53.458;9.940;2023-04-24T13:29:46;2.90;;;2.90;;
9270;SDS011;4673;53.458;9.940;2023-04-24T13:32:12;2.73;;;2.73;;
9270;SDS011;4673;53.458;9.940;2023-04-24T13:34:38;3.00;;;3.00;;
9270;SDS011;4673;53.458;9.940;2023-04-24T13:37:04;3.37;;;3.37;;
9270;SDS011;4673;53.458;9.940;2023-04-24T13:39:30;3.50;;;3.50;;
9270;SDS011;4673;53.458;9.940;2023-04-24T13:41:56;2.87;;;2.87;;
9270;SDS011;4673;53.458;9.940;2023-04-24T13:44:22;3.33;;;3.33;;
9270;SDS011;4673;53.458;9.940;2023-04-24T13:46:49;3.50;;;3.50;;
9270;SDS011;4673;53.458;9.940;2023-04-24T13:49:17;3.30;;;3.30;;
9270;SDS011;4673;53.458;9.940;2023-04-24T13:51:43;3.23;;;3.23;;
9270;SDS011;4673;53.458;9.940;2023-04-24T13:54:09;3.73;;;3.73;;
9270;SDS011;4673;53.458;9.940;2023-04-24T13:56:35;3.33;;;3.33;;
9270;SDS011;4673;53.458;9.940;2023-04-24T13:59:00;3.40;;;3.40;;
9270;SDS011;4673;53.458;9.940;2023-04-24T14:01:26;3.43;;;3.43;;
9270;SDS011;4673;53.458;9.940;2023-04-24T14:03:52;3.30;;;3.30;;
9270;SDS011;4673;53.458;9.940;2023-04-24T14:06:19;3.50;;;3.50;;
9270;SDS011;4673;53.458;9.940;2023-04-24T14:08:45;3.00;;;3.00;;
9270;SDS011;4673;53.458;9.940;2023-04-24T14:11:11;2.83;;;2.83;;
9270;SDS011;4673;53.458;9.940;2023-04-24T14:13:37;2.72;;;2.72;;
9270;SDS011;4673;53.458;9.940;2023-04-24T14:16:03;3.42;;;3.42;;
9270;SDS011;4673;53.458;9.940;2023-04-24T14:18:29;3.00;;;3.00;;
9270;SDS011;4673;53.458;9.940;2023-04-24T14:20:55;2.60;;;2.60;;
9270;SDS011;4673;53.458;9.940;2023-04-24T14:23:21;2.42;;;2.42;;
9270;SDS011;4673;53.458;9.940;2023-04-24T14:25:46;2.92;;;2.92;;
9270;SDS011;4673;53.458;9.940;2023-04-24T14:28:15;2.80;;;2.80;;
9270;SDS011;4673;53.458;9.940;2023-04-24T14:30:42;2.60;;;2.60;;
9270;SDS011;4673;53.458;9.940;2023-04-24T14:33:08;2.60;;;2.60;;
9270;SDS011;4673;53.458;9.940;2023-04-24T14:35:33;2.70;;;2.70;;
9270;SDS011;4673;53.458;9.940;2023-04-24T14:38:00;2.87;;;2.87;;
9270;SDS011;4673;53.458;9.940;2023-04-24T14:40:26;2.67;;;2.67;;
9270;SDS011;4673;53.458;9.940;2023-04-24T14:42:51;3.10;;;3.10;;
9270;SDS011;4673;53.458;9.940;2023-04-24T14:45:17;3.00;;;3.00;;
9270;SDS011;4673;53.458;9.940;2023-04-24T14:47:43;3.47;;;3.47;;
9270;SDS011;4673;53.458;9.940;2023-04-24T14:50:09;4.27;;;4.27;;
9270;SDS011;4673;53.458;9.940;2023-04-24T14:52:37;11.17;;;11.17;;
9270;SDS011;4673;53.458;9.940;2023-04-24T14:55:03;15.17;;;15.07;;
9270;SDS011;4673;53.458;9.940;2023-04-24T14:57:29;11.87;;;11.77;;
9270;SDS011;4673;53.458;9.940;2023-04-24T14:59:55;7.87;;;7.87;;
9270;SDS011;4673;53.458;9.940;2023-04-24T15:02:21;4.23;;;4.23;;
9270;SDS011;4673;53.458;9.940;2023-04-24T15:04:46;4.23;;;4.23;;
9270;SDS011;4673;53.458;9.940;2023-04-24T15:07:12;3.83;;;3.83;;
9270;SDS011;4673;53.458;9.940;2023-04-24T15:09:37;4.00;;;4.00;;
9270;SDS011;4673;53.458;9.940;2023-04-24T15:12:03;4.23;;;4.23;;
9270;SDS011;4673;53.458;9.940;2023-04-24T15:14:29;4.73;;;4.73;;
9270;SDS011;4673;53.458;9.940;2023-04-24T15:16:55;4.73;;;4.73;;
9270;SDS011;4673;53.458;9.940;2023-04-24T15:19:20;4.47;;;4.47;;
9270;SDS011;4673;53.458;9.940;2023-04-24T15:21:46;5.40;;;5.40;;
9270;SDS011;4673;53.458;9.940;2023-04-24T15:24:12;4.97;;;4.97;;
9270;SDS011;4673;53.458;9.940;2023-04-24T15:26:37;4.07;;;4.07;;
9270;SDS011;4673;53.458;9.940;2023-04-24T15:29:03;3.80;;;3.80;;